Kuala Belait, Brunei
Current Conditions -  °F | °C
As of 7:00 PM on Friday 24 Oct 2014 (Local Time) from WBGR Reporting Station
Broken Clouds Broken Clouds  
Wind Chill: 82°   Ceiling: 15000
Heat Index: 89°   Visibility: 6mi
Dew Point: 75°   Wind: 2mph
Humidity: 79%   Direction: 290°WNW
Pressure: 29.83"   Gusts: NA
Location:  4.59°N, 114.18°E
Report Text: WBGR 241100Z 29002KT 9999 SCT014 BKN150 28/24 Q1010
Loading
Personal Weather Stations






























Interactive Weather Map
Tropical Storm Tracking
New forecast layout! Learn more

10-Day Weather Forecast

Advertisements
Track Severe Weather on mobile